Time;durP1;ratioP1;P1;durP2;ratioP2;P2;SDS_P1;SDS_P2;PMS_P1;PMS_P2;Temp;Humidity;BMP_temperature;BMP_pressure;BME280_temperature;BME280_humidity;BME280_pressure;Samples;Min_cycle;Max_cycle;Signal;HPM_P1;HPM_P2
2023/08/07 00:00:51;;;;;;;6.20;2.97;;;13.70;99.90;;;;;;6254341;28;20057;-81
2023/08/07 00:03:52;;;;;;;2.22;1.98;;;13.80;99.90;;;;;;6255102;28;20049;-81
2023/08/07 00:06:54;;;;;;;4.65;2.35;;;13.80;99.90;;;;;;6253304;28;20061;-80
2023/08/07 00:09:56;;;;;;;2.97;1.50;;;13.80;99.90;;;;;;6253849;28;20057;-81
2023/08/07 00:12:57;;;;;;;2.08;1.85;;;13.80;99.90;;;;;;6253682;28;20042;-79
2023/08/07 00:16:00;;;;;;;7.13;2.10;;;13.80;99.90;;;;;;6255598;28;20053;-81
2023/08/07 00:19:03;;;;;;;2.42;1.55;;;13.80;99.90;;;;;;6254666;28;20056;-81
2023/08/07 00:22:05;;;;;;;3.92;1.70;;;13.90;99.90;;;;;;6255816;28;20191;-80
2023/08/07 00:25:07;;;;;;;4.13;1.60;;;13.90;99.90;;;;;;6254995;28;20071;-81
2023/08/07 00:28:09;;;;;;;6.88;1.88;;;13.90;99.90;;;;;;6265739;28;20048;-81
2023/08/07 00:31:12;;;;;;;3.22;1.67;;;13.90;99.90;;;;;;6278859;28;20041;-81
2023/08/07 00:34:14;;;;;;;3.83;2.40;;;13.90;99.90;;;;;;6257921;28;20061;-81
2023/08/07 00:37:15;;;;;;;3.83;1.52;;;13.90;99.90;;;;;;6276779;28;20051;-81
2023/08/07 00:40:18;;;;;;;6.20;1.88;;;13.90;99.90;;;;;;6267461;28;20045;-81
2023/08/07 00:43:20;;;;;;;3.15;1.40;;;13.90;99.90;;;;;;6259007;28;20041;-80
2023/08/07 00:46:23;;;;;;;3.63;1.55;;;13.90;99.90;;;;;;6279394;28;20057;-81
2023/08/07 00:49:25;;;;;;;5.30;2.22;;;13.80;99.90;;;;;;6253413;28;20075;-79
2023/08/07 00:52:27;;;;;;;1.85;1.67;;;13.80;99.90;;;;;;6267114;28;20070;-81
2023/08/07 00:55:30;;;;;;;6.80;1.90;;;13.80;99.90;;;;;;6278484;28;20053;-80
2023/08/07 00:58:32;;;;;;;6.45;3.58;;;13.80;99.90;;;;;;6278567;28;20045;-80
2023/08/07 01:01:36;;;;;;;21.73;3.08;;;13.70;99.90;;;;;;6278694;28;20496;-78
2023/08/07 01:04:37;;;;;;;2.97;1.75;;;13.70;99.90;;;;;;6276560;28;20052;-80
2023/08/07 01:07:39;;;;;;;7.03;1.88;;;13.70;99.90;;;;;;6279551;28;20045;-81
2023/08/07 01:11:01;;;;;;;2.70;1.13;;;13.60;99.90;;;;;;6280914;28;20441;-79
2023/08/07 01:14:09;;;;;;;1.95;1.75;;;13.60;99.90;;;;;;6279323;28;20053;-81
2023/08/07 01:17:16;;;;;;;3.97;1.40;;;13.50;99.90;;;;;;6278961;28;20064;-79
2023/08/07 01:20:19;;;;;;;2.33;1.83;;;13.50;99.90;;;;;;6278301;28;20052;-78
2023/08/07 01:23:22;;;;;;;4.72;2.50;;;13.50;99.90;;;;;;6278627;28;20049;-80
2023/08/07 01:26:24;;;;;;;2.33;1.40;;;13.50;99.90;;;;;;6282250;28;20067;-80
2023/08/07 01:29:32;;;;;;;5.50;2.03;;;13.50;99.90;;;;;;6256435;28;20045;-79
2023/08/07 01:32:40;;;;;;;7.65;2.90;;;13.50;99.90;;;;;;6254171;28;20370;-81
2023/08/07 01:35:44;;;;;;;3.35;1.63;;;13.50;99.90;;;;;;6253796;28;20049;-79
2023/08/07 01:38:50;;;;;;;2.13;1.63;;;13.50;99.90;;;;;;6254219;28;20052;-79
2023/08/07 01:41:52;;;;;;;4.13;1.70;;;13.50;99.90;;;;;;6254603;28;20057;-81
2023/08/07 01:44:54;;;;;;;9.40;1.70;;;13.50;99.90;;;;;;6254140;28;20088;-81
2023/08/07 01:47:56;;;;;;;4.32;1.83;;;13.50;99.90;;;;;;6254349;28;20063;-80
2023/08/07 01:50:58;;;;;;;2.65;1.90;;;13.50;99.90;;;;;;6254821;28;20061;-80
2023/08/07 01:54:01;;;;;;;2.45;1.30;;;13.50;99.90;;;;;;6254831;28;20067;-81
2023/08/07 01:57:02;;;;;;;4.10;1.65;;;13.50;99.90;;;;;;6255345;28;20053;-81
2023/08/07 02:00:05;;;;;;;3.78;1.98;;;13.40;99.90;;;;;;6253123;28;20060;-78
2023/08/07 02:03:06;;;;;;;4.45;3.13;;;13.30;99.90;;;;;;6254392;28;20046;-80
2023/08/07 02:06:08;;;;;;;2.03;1.40;;;13.30;99.90;;;;;;6256471;28;20057;-79
2023/08/07 02:09:11;;;;;;;3.80;1.95;;;13.30;99.90;;;;;;6253683;28;20508;-81
2023/08/07 02:12:13;;;;;;;3.30;1.65;;;13.20;99.90;;;;;;6253329;28;20503;-80
2023/08/07 02:15:15;;;;;;;3.20;1.58;;;13.10;99.90;;;;;;6253368;28;20052;-79
2023/08/07 02:18:16;;;;;;;5.55;1.77;;;13.10;99.90;;;;;;6261517;28;20049;-82
2023/08/07 02:21:18;;;;;;;2.53;1.67;;;13.10;99.90;;;;;;6259152;28;20053;-81
2023/08/07 02:24:21;;;;;;;9.18;2.47;;;13.00;99.90;;;;;;6259438;28;20048;-79
2023/08/07 02:27:23;;;;;;;2.47;1.65;;;12.90;99.90;;;;;;6258062;28;20052;-77
2023/08/07 02:30:24;;;;;;;2.83;1.50;;;12.90;99.90;;;;;;6259421;28;20045;-80
2023/08/07 02:33:26;;;;;;;4.55;1.75;;;12.90;99.90;;;;;;6258702;28;20068;-80
2023/08/07 02:36:28;;;;;;;2.72;1.70;;;12.80;99.90;;;;;;6257454;28;20723;-79
2023/08/07 02:39:31;;;;;;;8.93;1.98;;;12.80;99.90;;;;;;6258226;28;20718;-78
2023/08/07 02:42:32;;;;;;;5.32;1.75;;;12.70;99.90;;;;;;6259689;28;20053;-81
2023/08/07 02:45:35;;;;;;;3.38;2.25;;;12.70;99.90;;;;;;6257134;28;20049;-79
2023/08/07 02:48:37;;;;;;;7.45;1.88;;;12.70;99.90;;;;;;6257106;28;20048;-80
2023/08/07 02:51:38;;;;;;;2.50;1.83;;;12.70;99.90;;;;;;6257375;28;20049;-79
2023/08/07 02:54:41;;;;;;;2.90;1.98;;;12.70;99.90;;;;;;6256490;28;20061;-79
2023/08/07 02:57:43;;;;;;;3.10;1.88;;;12.60;99.90;;;;;;6256414;28;20048;-78
2023/08/07 03:00:45;;;;;;;4.15;2.25;;;12.60;99.90;;;;;;6255447;28;20056;-79
2023/08/07 03:03:47;;;;;;;4.28;2.22;;;12.50;99.90;;;;;;6256232;28;20045;-80
2023/08/07 03:06:48;;;;;;;2.53;1.73;;;12.50;99.90;;;;;;6256611;28;20057;-80
2023/08/07 03:09:51;;;;;;;2.42;2.20;;;12.50;99.90;;;;;;6255124;28;20420;-78
2023/08/07 03:12:53;;;;;;;3.08;2.08;;;12.40;99.90;;;;;;6272464;28;20254;-80
2023/08/07 03:16:00;;;;;;;6.28;2.40;;;12.40;99.90;;;;;;6279907;28;20065;-79
2023/08/07 03:19:02;;;;;;;8.18;4.20;;;12.40;99.90;;;;;;6280219;28;20293;-78
2023/08/07 03:22:04;;;;;;;2.88;2.42;;;12.30;99.90;;;;;;6280128;28;20048;-78
2023/08/07 03:25:08;;;;;;;4.85;1.90;;;12.30;99.90;;;;;;6279433;28;20061;-79
2023/08/07 03:28:10;;;;;;;2.45;2.13;;;12.30;99.90;;;;;;6267399;28;20046;-79
2023/08/07 03:31:11;;;;;;;3.50;2.15;;;12.20;99.90;;;;;;6253518;28;20048;-79
2023/08/07 03:34:13;;;;;;;5.70;2.40;;;12.20;99.90;;;;;;6253516;28;20061;-79
2023/08/07 03:37:15;;;;;;;2.85;1.90;;;12.20;99.90;;;;;;6252827;28;20046;-79
2023/08/07 03:40:18;;;;;;;3.35;1.85;;;12.20;99.90;;;;;;6251686;28;20056;-80
2023/08/07 03:43:19;;;;;;;2.35;1.92;;;12.20;99.90;;;;;;6252947;28;20060;-80
2023/08/07 03:46:21;;;;;;;5.03;2.13;;;12.20;99.90;;;;;;6253467;28;20145;-80
2023/08/07 03:49:23;;;;;;;2.55;1.83;;;12.30;99.90;;;;;;6252225;28;20045;-79
2023/08/07 03:52:25;;;;;;;4.88;2.55;;;12.30;99.90;;;;;;6252571;28;20049;-79
2023/08/07 03:55:28;;;;;;;6.60;3.33;;;12.40;99.90;;;;;;6252734;28;20048;-78
2023/08/07 03:58:30;;;;;;;2.00;1.80;;;12.50;99.90;;;;;;6253162;28;20072;-80
2023/08/07 04:01:32;;;;;;;4.32;2.03;;;12.50;99.90;;;;;;6252633;28;20080;-80
2023/08/07 04:04:33;;;;;;;3.03;2.17;;;12.50;99.90;;;;;;6253488;28;20045;-80
2023/08/07 04:07:35;;;;;;;4.95;2.38;;;12.60;99.90;;;;;;6254935;28;20056;-81
2023/08/07 04:10:38;;;;;;;3.58;2.10;;;12.60;99.90;;;;;;6254572;28;20056;-78
2023/08/07 04:13:40;;;;;;;4.60;1.85;;;12.60;99.90;;;;;;6253570;28;20049;-82
2023/08/07 04:16:41;;;;;;;6.35;2.10;;;12.60;99.90;;;;;;6252681;28;20049;-81
2023/08/07 04:19:43;;;;;;;2.78;2.50;;;12.70;99.90;;;;;;6252516;28;20053;-81
2023/08/07 04:22:45;;;;;;;3.17;1.60;;;12.70;99.90;;;;;;6254487;28;20052;-81
2023/08/07 04:25:48;;;;;;;6.25;1.77;;;12.70;99.90;;;;;;6253077;28;20056;-80
2023/08/07 04:28:50;;;;;;;3.38;2.10;;;12.70;99.90;;;;;;6253013;28;20046;-79
2023/08/07 04:31:51;;;;;;;2.28;1.95;;;12.80;99.90;;;;;;6252828;28;20184;-81
2023/08/07 04:34:53;;;;;;;3.67;2.40;;;12.80;99.90;;;;;;6255423;28;20052;-81
2023/08/07 04:37:55;;;;;;;2.13;1.92;;;12.80;99.90;;;;;;6252858;28;20049;-79
2023/08/07 04:40:58;;;;;;;4.00;2.58;;;12.80;99.90;;;;;;6252269;28;20056;-80
2023/08/07 04:44:00;;;;;;;4.88;1.95;;;12.80;99.90;;;;;;6253147;28;20045;-81
2023/08/07 04:47:02;;;;;;;2.85;1.98;;;12.90;99.90;;;;;;6252876;28;20428;-78
2023/08/07 04:50:05;;;;;;;4.70;1.80;;;12.90;99.90;;;;;;6252865;28;20156;-80
2023/08/07 04:53:06;;;;;;;2.95;2.47;;;13.00;99.90;;;;;;6252810;28;20059;-81
2023/08/07 04:56:09;;;;;;;3.38;1.77;;;13.10;99.90;;;;;;6252902;28;20057;-80
2023/08/07 04:59:12;;;;;;;4.50;2.05;;;13.10;99.90;;;;;;6252332;28;20052;-80
2023/08/07 05:02:14;;;;;;;4.15;2.00;;;13.20;99.90;;;;;;6251592;28;20053;-80
2023/08/07 05:05:16;;;;;;;2.83;2.25;;;13.20;99.90;;;;;;6249913;28;20045;-79
2023/08/07 05:08:17;;;;;;;5.63;1.70;;;13.20;99.90;;;;;;6251479;28;20135;-79
2023/08/07 05:11:20;;;;;;;2.65;2.35;;;13.30;99.90;;;;;;6260647;28;20061;-82
2023/08/07 05:14:22;;;;;;;5.18;2.83;;;13.40;99.90;;;;;;6250689;28;20049;-78
2023/08/07 05:17:24;;;;;;;3.83;2.72;;;13.40;99.90;;;;;;6250428;28;20056;-80
2023/08/07 05:20:26;;;;;;;6.25;2.55;;;13.40;99.90;;;;;;6250735;28;20051;-80
2023/08/07 05:23:27;;;;;;;7.50;2.03;;;13.50;99.90;;;;;;6250715;28;20057;-80
2023/08/07 05:26:30;;;;;;;4.85;2.45;;;13.50;99.90;;;;;;6251888;28;20071;-81
2023/08/07 05:29:32;;;;;;;3.25;2.38;;;13.50;99.90;;;;;;6250346;28;20050;-78
2023/08/07 05:32:37;;;;;;;5.00;2.08;;;13.50;99.90;;;;;;6250297;28;20049;-81
2023/08/07 05:35:39;;;;;;;6.00;1.77;;;13.60;99.90;;;;;;6250391;28;20176;-79
2023/08/07 05:38:40;;;;;;;5.35;2.10;;;13.60;99.90;;;;;;6250387;28;20497;-79
2023/08/07 05:41:43;;;;;;;2.67;1.60;;;13.70;99.90;;;;;;6250216;28;20575;-81
2023/08/07 05:44:45;;;;;;;3.65;1.95;;;13.70;99.90;;;;;;6249561;28;20615;-79
2023/08/07 05:47:47;;;;;;;4.72;1.48;;;13.80;99.90;;;;;;6250159;28;20065;-79
2023/08/07 05:50:48;;;;;;;4.68;2.25;;;13.80;99.90;;;;;;6253305;28;20050;-79
2023/08/07 05:53:50;;;;;;;3.72;2.60;;;13.90;99.90;;;;;;6255026;28;20428;-79
2023/08/07 05:56:53;;;;;;;3.65;1.75;;;13.90;99.90;;;;;;6255307;28;20057;-79
2023/08/07 05:59:55;;;;;;;1.83;1.52;;;13.90;99.90;;;;;;6254516;28;20129;-80
2023/08/07 06:02:57;;;;;;;5.10;1.95;;;14.00;99.90;;;;;;6255078;28;20061;-79
2023/08/07 06:05:59;;;;;;;2.30;1.55;;;14.10;99.90;;;;;;6255258;28;20493;-80
2023/08/07 06:09:00;;;;;;;2.90;2.47;;;14.20;99.90;;;;;;6253685;28;20139;-79
2023/08/07 06:12:04;;;;;;;3.25;1.73;;;14.20;99.90;;;;;;6255127;28;20049;-80
2023/08/07 06:15:06;;;;;;;3.28;2.65;;;14.20;99.90;;;;;;6255322;28;20052;-80
2023/08/07 06:18:08;;;;;;;5.65;1.83;;;14.20;99.90;;;;;;6254945;28;20057;-81
2023/08/07 06:21:10;;;;;;;6.95;2.60;;;14.20;99.90;;;;;;6254930;28;20041;-80
2023/08/07 06:24:12;;;;;;;3.92;2.03;;;14.20;99.90;;;;;;6254490;28;20050;-79
2023/08/07 06:27:15;;;;;;;4.90;2.08;;;14.40;99.90;;;;;;6254536;28;20042;-80
2023/08/07 06:30:17;;;;;;;3.97;3.53;;;15.20;99.90;;;;;;6254065;28;20042;-80
2023/08/07 06:33:18;;;;;;;4.03;2.05;;;16.30;99.90;;;;;;6252812;28;20485;-79
2023/08/07 06:36:20;;;;;;;3.22;2.38;;;16.90;99.90;;;;;;6253379;28;20052;-80
2023/08/07 06:39:22;;;;;;;3.15;1.95;;;16.70;99.90;;;;;;6253543;28;20042;-79
2023/08/07 06:42:25;;;;;;;2.08;1.25;;;16.40;99.90;;;;;;6254160;28;20509;-78
2023/08/07 06:45:26;;;;;;;2.38;1.70;;;16.10;99.90;;;;;;6254394;28;20076;-80
2023/08/07 06:48:28;;;;;;;2.17;1.88;;;15.90;99.90;;;;;;6253939;28;20125;-80
2023/08/07 06:51:30;;;;;;;2.63;1.75;;;15.70;99.90;;;;;;6253673;28;20045;-77
2023/08/07 06:54:31;;;;;;;6.70;2.22;;;15.40;99.90;;;;;;6260800;28;20132;-81
2023/08/07 06:57:35;;;;;;;3.30;1.92;;;15.40;99.90;;;;;;6253629;28;20045;-80
2023/08/07 07:00:37;;;;;;;4.95;2.03;;;15.40;99.90;;;;;;6261877;28;20045;-79
2023/08/07 07:03:39;;;;;;;3.58;1.40;;;15.30;99.90;;;;;;6274072;28;20119;-79
2023/08/07 07:06:41;;;;;;;4.18;1.83;;;15.40;99.90;;;;;;6278775;28;20368;-80
2023/08/07 07:09:42;;;;;;;3.33;2.03;;;15.50;99.90;;;;;;6278454;28;20049;-79
2023/08/07 07:12:45;;;;;;;3.30;2.08;;;15.50;99.90;;;;;;6277546;28;20045;-81
2023/08/07 07:15:47;;;;;;;2.95;1.50;;;15.60;99.90;;;;;;6278782;28;20559;-79
2023/08/07 07:18:50;;;;;;;3.42;2.15;;;15.60;99.90;;;;;;6277016;28;20484;-79
2023/08/07 07:21:53;;;;;;;5.53;2.17;;;15.60;99.90;;;;;;6278998;28;20313;-80
2023/08/07 07:24:54;;;;;;;5.68;1.83;;;15.90;99.90;;;;;;6277504;28;20044;-80
2023/08/07 07:27:58;;;;;;;5.60;2.05;;;16.00;99.90;;;;;;6259888;28;20045;-78
2023/08/07 07:30:59;;;;;;;3.97;1.88;;;16.10;99.90;;;;;;6245889;28;20369;-80
2023/08/07 07:34:01;;;;;;;4.97;1.77;;;16.20;99.90;;;;;;6250491;28;20042;-80
2023/08/07 07:37:03;;;;;;;4.20;1.60;;;16.40;99.90;;;;;;6250471;28;20054;-78
2023/08/07 07:40:05;;;;;;;3.72;1.75;;;16.50;99.90;;;;;;6252011;28;20049;-80
2023/08/07 07:43:08;;;;;;;2.20;1.50;;;16.50;99.90;;;;;;6251578;28;20049;-80
2023/08/07 07:46:10;;;;;;;1.70;1.60;;;16.60;99.90;;;;;;6251843;28;20129;-81
2023/08/07 07:49:12;;;;;;;2.58;1.90;;;16.60;99.90;;;;;;6251262;28;20041;-80
2023/08/07 07:52:13;;;;;;;1.77;1.33;;;16.90;99.90;;;;;;6251568;28;20056;-81
2023/08/07 07:55:15;;;;;;;6.95;1.58;;;16.90;99.90;;;;;;6251566;28;20049;-80
2023/08/07 07:58:18;;;;;;;3.92;1.35;;;17.10;99.90;;;;;;6255347;28;20152;-80
2023/08/07 08:04:52;;;;;;;4.70;1.30;;;17.40;99.90;;;;;;6287583;28;20073;-80
2023/08/07 08:07:54;;;;;;;3.63;1.83;;;17.60;99.90;;;;;;6276667;28;20040;-79
2023/08/07 08:10:55;;;;;;;3.67;1.60;;;17.60;99.90;;;;;;6253511;28;20080;-81
2023/08/07 08:13:58;;;;;;;4.50;2.10;;;17.60;99.90;;;;;;6247994;28;20053;-81
2023/08/07 08:17:00;;;;;;;5.55;1.50;;;17.80;99.90;;;;;;6248549;28;20422;-82
2023/08/07 08:23:54;;;;;;;1.65;1.13;;;18.90;99.90;;;;;;6254824;28;20053;-80
2023/08/07 08:27:00;;;;;;;2.05;1.23;;;20.20;99.90;;;;;;6275617;28;20041;-81
2023/08/07 08:30:03;;;;;;;2.67;0.98;;;20.70;99.60;;;;;;6255745;28;20045;-79
2023/08/07 08:33:06;;;;;;;2.80;1.23;;;21.30;98.40;;;;;;6275941;28;20053;-82
2023/08/07 08:36:07;;;;;;;3.17;1.40;;;22.10;97.30;;;;;;6276525;28;20049;-83
2023/08/07 08:39:09;;;;;;;1.73;0.98;;;22.60;95.10;;;;;;6274814;28;20053;-82
2023/08/07 08:42:13;;;;;;;4.05;1.55;;;22.90;93.00;;;;;;6275629;28;20053;-83
2023/08/07 08:45:16;;;;;;;1.52;0.93;;;23.20;92.00;;;;;;6274665;28;20049;-81
2023/08/07 08:48:23;;;;;;;2.67;1.40;;;23.30;90.60;;;;;;6275565;28;20132;-81
2023/08/07 08:51:25;;;;;;;1.83;0.95;;;23.30;88.70;;;;;;6274272;28;20044;-83
2023/08/07 08:54:27;;;;;;;5.68;1.60;;;23.50;88.40;;;;;;6274615;28;20051;-83
2023/08/07 08:57:30;;;;;;;1.75;1.35;;;23.50;84.90;;;;;;6269520;28;20055;-82
2023/08/07 09:00:34;;;;;;;4.13;1.42;;;23.20;83.30;;;;;;6251964;28;20048;-81
2023/08/07 09:03:36;;;;;;;2.00;1.25;;;22.50;83.40;;;;;;6273674;28;20072;-83
2023/08/07 09:06:39;;;;;;;1.92;1.17;;;22.10;84.10;;;;;;6274811;28;20069;-80
2023/08/07 09:09:41;;;;;;;2.30;1.27;;;21.90;84.70;;;;;;6273741;28;20063;-81
2023/08/07 09:12:50;;;;;;;3.53;1.38;;;21.50;83.50;;;;;;6275183;28;20589;-83
2023/08/07 09:15:54;;;;;;;3.35;1.60;;;21.70;85.30;;;;;;6274465;28;20502;-80
2023/08/07 09:18:55;;;;;;;2.13;1.52;;;22.40;84.20;;;;;;6273765;28;20395;-83
2023/08/07 09:21:57;;;;;;;3.97;1.75;;;23.00;82.60;;;;;;6270579;28;20045;-80
2023/08/07 09:25:00;;;;;;;8.75;2.00;;;23.60;80.90;;;;;;6258823;28;20053;-82
2023/08/07 10:43:43;;;;;;;1.98;1.00;;;24.20;66.20;;;;;;6374749;27;20419;-82
2023/08/07 10:46:50;;;;;;;2.17;1.17;;;23.60;67.30;;;;;;6370430;28;20055;-82
2023/08/07 10:53:35;;;;;;;1.48;1.17;;;23.30;67.40;;;;;;6337538;27;20052;-83
2023/08/07 10:57:04;;;;;;;1.35;1.25;;;22.70;68.00;;;;;;6332633;28;20044;-81
2023/08/07 11:00:14;;;;;;;11.80;1.60;;;22.50;68.80;;;;;;6334004;28;20064;-81
2023/08/07 11:03:26;;;;;;;2.35;2.00;;;22.20;69.30;;;;;;6328929;28;20059;-81
2023/08/07 11:06:31;;;;;;;1.67;0.90;;;21.80;69.70;;;;;;6345104;28;20052;-80
2023/08/07 11:09:34;;;;;;;2.85;1.50;;;21.60;69.90;;;;;;6333415;28;20094;-82
2023/08/07 11:12:38;;;;;;;2.00;1.25;;;21.50;70.20;;;;;;6324972;28;20047;-79
2023/08/07 11:15:41;;;;;;;2.22;1.45;;;21.30;70.80;;;;;;6333174;28;20410;-83
2023/08/07 11:18:44;;;;;;;2.80;1.35;;;21.30;71.50;;;;;;6331697;28;20050;-80
2023/08/07 11:21:46;;;;;;;2.20;1.50;;;21.10;71.80;;;;;;6332893;28;20058;-79
2023/08/07 11:24:48;;;;;;;4.60;1.80;;;21.00;71.50;;;;;;6336894;28;20112;-82
2023/08/07 11:27:49;;;;;;;1.85;1.58;;;20.70;71.60;;;;;;6332455;28;20052;-79
2023/08/07 11:30:55;;;;;;;3.70;1.25;;;20.50;72.00;;;;;;6335723;28;20037;-78
2023/08/07 11:33:59;;;;;;;2.17;1.65;;;20.30;73.30;;;;;;6335362;28;20058;-79
2023/08/07 11:37:01;;;;;;;1.30;1.13;;;20.10;73.30;;;;;;6335452;28;20040;-81
2023/08/07 11:40:03;;;;;;;2.17;1.27;;;20.20;73.60;;;;;;6333925;28;20044;-81
2023/08/07 11:43:05;;;;;;;1.55;1.15;;;20.20;73.20;;;;;;6333806;28;20064;-81
2023/08/07 11:46:10;;;;;;;2.65;1.50;;;20.30;73.40;;;;;;6336066;28;20048;-81
2023/08/07 11:49:13;;;;;;;4.05;1.70;;;20.30;74.10;;;;;;6335442;28;20044;-80
2023/08/07 11:52:16;;;;;;;1.88;1.70;;;20.40;73.80;;;;;;6325037;28;20048;-81
2023/08/07 11:55:29;;;;;;;8.27;2.38;;;20.30;74.20;;;;;;6317055;28;20049;-82
2023/08/07 11:58:35;;;;;;;5.80;1.65;;;20.30;74.80;;;;;;6317993;28;20090;-80
2023/08/07 12:01:40;;;;;;;1.92;1.55;;;20.40;74.20;;;;;;6319020;28;20043;-80
2023/08/07 12:04:42;;;;;;;3.88;1.63;;;20.50;73.30;;;;;;6320035;28;20059;-81
2023/08/07 12:07:44;;;;;;;3.22;1.80;;;20.70;73.10;;;;;;6318729;28;20103;-81
2023/08/07 12:10:50;;;;;;;2.13;1.48;;;21.00;72.60;;;;;;6315988;28;20109;-81
2023/08/07 12:13:52;;;;;;;2.88;1.63;;;21.20;72.30;;;;;;6316873;28;20088;-82
2023/08/07 12:16:56;;;;;;;1.27;1.17;;;21.40;72.10;;;;;;6318295;28;20076;-81
2023/08/07 12:19:59;;;;;;;4.68;2.17;;;21.80;72.00;;;;;;6310658;28;20044;-80
2023/08/07 12:23:00;;;;;;;1.63;1.10;;;22.20;71.90;;;;;;6311051;28;20047;-83
2023/08/07 12:26:07;;;;;;;6.28;2.83;;;23.00;71.30;;;;;;6307478;28;20076;-81
2023/08/07 12:29:09;;;;;;;5.60;2.28;;;23.40;70.00;;;;;;6304310;28;20387;-79
2023/08/07 12:32:12;;;;;;;3.47;1.42;;;23.70;69.70;;;;;;6316233;28;20055;-81
2023/08/07 12:35:13;;;;;;;3.13;1.52;;;24.10;69.00;;;;;;6308827;28;20045;-79
2023/08/07 12:38:15;;;;;;;4.00;1.67;;;24.60;67.30;;;;;;6302735;28;20052;-81
2023/08/07 12:41:17;;;;;;;3.38;1.48;;;24.80;65.80;;;;;;6294872;28;20044;-80
2023/08/07 12:44:19;;;;;;;2.20;1.58;;;24.90;65.10;;;;;;6301114;28;20052;-81
2023/08/07 12:47:22;;;;;;;5.57;2.10;;;24.80;64.40;;;;;;6301105;28;20472;-79
2023/08/07 12:50:23;;;;;;;2.35;1.73;;;24.50;64.10;;;;;;6300794;28;20627;-79
2023/08/07 12:53:25;;;;;;;4.40;1.45;;;24.30;64.70;;;;;;6300283;28;20043;-80
2023/08/07 12:56:27;;;;;;;4.85;2.10;;;24.30;64.30;;;;;;6301434;28;20047;-81
2023/08/07 12:59:28;;;;;;;2.40;1.10;;;24.60;64.40;;;;;;6297040;28;20568;-81
2023/08/07 13:02:32;;;;;;;6.63;1.65;;;24.70;63.60;;;;;;6300302;28;20508;-79
2023/08/07 13:05:33;;;;;;;1.83;1.25;;;25.00;62.60;;;;;;6298867;28;20052;-79
2023/08/07 13:08:35;;;;;;;1.73;1.55;;;25.20;61.50;;;;;;6300319;28;20045;-80
2023/08/07 13:11:37;;;;;;;1.90;1.27;;;25.20;60.50;;;;;;6293783;28;20047;-80
2023/08/07 13:14:38;;;;;;;3.13;1.40;;;25.20;60.50;;;;;;6300786;28;20076;-80
2023/08/07 13:17:42;;;;;;;1.88;1.50;;;25.10;60.60;;;;;;6298450;28;20048;-79
2023/08/07 13:20:44;;;;;;;1.23;1.10;;;24.50;60.30;;;;;;6294244;28;20048;-79
2023/08/07 13:23:46;;;;;;;2.60;1.83;;;23.90;61.50;;;;;;6297700;28;20052;-81
2023/08/07 13:26:48;;;;;;;2.28;1.63;;;23.30;63.10;;;;;;6299137;28;20052;-80
2023/08/07 13:29:49;;;;;;;5.38;2.80;;;23.40;64.90;;;;;;6297866;28;20423;-79
2023/08/07 13:32:52;;;;;;;4.30;1.48;;;23.70;65.50;;;;;;6298515;28;20037;-81
2023/08/07 13:35:54;;;;;;;3.05;1.67;;;24.40;65.20;;;;;;6299238;28;20371;-79
2023/08/07 13:38:56;;;;;;;2.70;1.42;;;24.80;64.40;;;;;;6298146;28;20048;-80
2023/08/07 13:41:59;;;;;;;3.00;1.90;;;24.60;62.90;;;;;;6300385;28;20072;-80
2023/08/07 13:45:02;;;;;;;2.80;1.30;;;24.40;64.10;;;;;;6298662;28;20569;-81
2023/08/07 13:48:06;;;;;;;4.00;1.45;;;24.30;63.90;;;;;;6299966;28;20119;-80
2023/08/07 13:51:08;;;;;;;3.40;1.90;;;24.00;64.70;;;;;;6297358;28;20144;-80
2023/08/07 13:54:09;;;;;;;3.50;1.40;;;23.70;65.00;;;;;;6299124;28;20051;-80
2023/08/07 13:57:11;;;;;;;5.47;1.50;;;23.40;65.10;;;;;;6298098;28;20053;-80
2023/08/07 14:00:14;;;;;;;1.77;1.25;;;22.80;66.00;;;;;;6300894;28;20055;-80
2023/08/07 14:03:17;;;;;;;5.53;1.98;;;22.30;67.20;;;;;;6299666;28;20048;-80
2023/08/07 14:06:19;;;;;;;2.45;2.25;;;22.20;68.40;;;;;;6298857;28;20466;-79
2023/08/07 14:09:22;;;;;;;2.22;1.52;;;22.40;68.90;;;;;;6299561;28;20044;-80
2023/08/07 14:12:24;;;;;;;2.03;1.38;;;22.70;68.40;;;;;;6291259;28;20048;-80
2023/08/07 14:15:25;;;;;;;3.40;1.70;;;22.70;67.80;;;;;;6299579;28;20051;-80
2023/08/07 14:18:28;;;;;;;4.10;1.90;;;22.30;68.20;;;;;;6299376;28;20135;-80
2023/08/07 14:21:31;;;;;;;4.32;1.55;;;22.10;68.90;;;;;;6298811;28;20503;-79
2023/08/07 14:24:32;;;;;;;5.20;1.52;;;22.00;69.30;;;;;;6299600;28;20360;-79
2023/08/07 14:27:34;;;;;;;1.75;1.58;;;21.80;69.60;;;;;;6298755;28;20052;-80
2023/08/07 14:30:36;;;;;;;2.17;1.38;;;21.70;70.10;;;;;;6301001;28;20054;-81
2023/08/07 14:33:39;;;;;;;3.90;1.52;;;21.50;71.20;;;;;;6299563;28;20045;-80
2023/08/07 14:36:41;;;;;;;2.42;1.85;;;21.20;70.80;;;;;;6300186;28;20075;-80
2023/08/07 14:39:43;;;;;;;2.40;1.75;;;21.20;71.40;;;;;;6303846;28;20044;-82
2023/08/07 14:42:45;;;;;;;5.30;1.95;;;21.10;71.90;;;;;;6296064;28;20045;-80
2023/08/07 14:45:46;;;;;;;4.22;1.63;;;21.10;72.60;;;;;;6300135;28;20454;-81
2023/08/07 14:48:50;;;;;;;1.30;1.20;;;21.50;72.50;;;;;;6300194;28;20048;-79
2023/08/07 14:51:51;;;;;;;3.05;1.65;;;22.00;72.50;;;;;;6298536;28;20052;-78
2023/08/07 14:54:56;;;;;;;4.20;1.52;;;22.40;71.50;;;;;;6302748;28;20126;-79
2023/08/07 14:57:57;;;;;;;2.47;1.27;;;22.60;70.20;;;;;;6296879;28;20060;-79
2023/08/07 15:00:59;;;;;;;1.48;1.10;;;22.60;70.30;;;;;;6304763;28;20622;-79
2023/08/07 15:04:02;;;;;;;3.42;1.30;;;22.70;70.50;;;;;;6306646;28;20102;-78
2023/08/07 15:07:15;;;;;;;1.85;1.45;;;22.90;70.30;;;;;;6305216;28;20048;-80
2023/08/07 15:10:31;;;;;;;5.65;2.20;;;23.00;70.50;;;;;;6310116;28;20056;-80
2023/08/07 15:13:33;;;;;;;2.25;1.80;;;23.70;69.80;;;;;;6290601;28;20045;-79
2023/08/07 15:16:35;;;;;;;2.75;1.58;;;24.50;68.60;;;;;;6283972;28;20041;-82
2023/08/07 15:19:38;;;;;;;1.80;1.50;;;25.00;66.90;;;;;;6283725;28;20052;-82
2023/08/07 15:22:40;;;;;;;3.50;1.27;;;25.00;65.50;;;;;;6293376;28;20041;-80
2023/08/07 15:25:42;;;;;;;3.08;1.77;;;24.80;65.60;;;;;;6296636;28;20048;-82
2023/08/07 15:28:45;;;;;;;2.92;1.48;;;24.40;64.90;;;;;;6301758;28;20059;-82
2023/08/07 15:31:46;;;;;;;1.55;1.33;;;24.00;65.10;;;;;;6313994;28;20427;-79
2023/08/07 15:34:50;;;;;;;3.28;2.45;;;23.80;65.40;;;;;;6309954;28;20145;-79
2023/08/07 15:37:51;;;;;;;3.20;1.60;;;23.50;65.50;;;;;;6306371;28;20044;-80
2023/08/07 15:44:10;;;;;;;2.53;1.75;;;22.70;66.70;;;;;;6277541;28;20052;-80
2023/08/07 15:47:12;;;;;;;2.67;1.90;;;22.50;67.70;;;;;;6304421;28;20127;-83
2023/08/07 15:50:15;;;;;;;4.13;1.40;;;22.50;67.80;;;;;;6312001;28;20058;-79
2023/08/07 15:53:17;;;;;;;2.72;1.55;;;22.30;67.90;;;;;;6312348;28;20083;-79
2023/08/07 15:56:18;;;;;;;1.55;1.40;;;22.10;68.00;;;;;;6307869;28;20045;-80
2023/08/07 15:59:21;;;;;;;1.55;1.10;;;22.00;68.50;;;;;;6288605;28;20051;-80
2023/08/07 16:02:22;;;;;;;1.65;1.10;;;21.90;68.60;;;;;;6282551;28;20041;-79
2023/08/07 16:05:26;;;;;;;3.25;1.45;;;21.80;68.90;;;;;;6284212;28;20049;-79
2023/08/07 16:08:27;;;;;;;2.50;1.50;;;22.10;68.90;;;;;;6312688;28;20050;-79
2023/08/07 16:11:33;;;;;;;3.35;1.77;;;22.30;68.50;;;;;;6353296;27;20044;-80
2023/08/07 16:14:35;;;;;;;3.75;1.77;;;22.80;68.00;;;;;;6358082;28;20078;-79
2023/08/07 16:17:37;;;;;;;2.33;1.50;;;23.10;67.50;;;;;;6359559;28;20055;-79
2023/08/07 16:20:40;;;;;;;4.50;1.95;;;23.30;67.10;;;;;;6360285;27;20050;-80
2023/08/07 16:23:41;;;;;;;2.13;1.45;;;23.50;66.60;;;;;;6357992;27;20043;-81
2023/08/07 16:26:43;;;;;;;3.78;1.17;;;23.30;66.10;;;;;;6357412;27;20135;-81
2023/08/07 16:29:45;;;;;;;1.98;1.50;;;22.80;66.50;;;;;;6358742;27;20044;-78
2023/08/07 16:32:52;;;;;;;3.05;2.15;;;22.50;67.60;;;;;;6363972;27;20039;-82
2023/08/07 16:35:56;;;;;;;6.38;1.83;;;22.30;68.10;;;;;;6360121;27;20063;-80
2023/08/07 16:39:02;;;;;;;7.18;1.67;;;22.10;68.90;;;;;;6356701;27;20159;-81
2023/08/07 16:42:04;;;;;;;2.70;1.30;;;22.10;69.30;;;;;;6355857;28;20095;-79
2023/08/07 16:45:07;;;;;;;4.50;1.77;;;22.00;69.70;;;;;;6352848;27;20056;-82
2023/08/07 16:48:09;;;;;;;3.85;1.42;;;22.00;70.10;;;;;;6352217;27;20044;-81
2023/08/07 16:51:12;;;;;;;1.55;1.23;;;22.00;69.80;;;;;;6351922;27;20071;-80
2023/08/07 16:54:14;;;;;;;1.30;1.20;;;22.00;69.20;;;;;;6370191;27;20043;-78
2023/08/07 16:57:17;;;;;;;2.38;2.10;;;22.00;69.50;;;;;;6353849;27;20054;-80
2023/08/07 17:00:19;;;;;;;2.78;1.95;;;22.00;68.70;;;;;;6328878;28;20045;-79
2023/08/07 17:03:21;;;;;;;1.90;1.35;;;21.80;68.40;;;;;;6329553;28;20059;-79
2023/08/07 17:06:24;;;;;;;1.42;1.33;;;21.60;68.20;;;;;;6328006;28;20051;-79
2023/08/07 17:09:26;;;;;;;1.67;1.30;;;21.40;68.20;;;;;;6327002;28;20496;-80
2023/08/07 17:12:28;;;;;;;1.60;1.13;;;21.20;68.60;;;;;;6322740;28;20051;-80
2023/08/07 17:15:29;;;;;;;3.15;1.48;;;20.90;69.30;;;;;;6313181;28;20062;-78
2023/08/07 17:18:31;;;;;;;2.42;1.30;;;20.70;70.10;;;;;;6327242;28;20052;-80
2023/08/07 17:21:34;;;;;;;2.08;1.33;;;20.70;70.90;;;;;;6324406;28;20047;-79